< < Back
Terminal Aerodrome Forecast


Current Version              Previous Versions:   1  2  3  4  5  6  7  8  9  

Terminal Aerodrome Forecast

529
FTUS42 KJAX 061825 AAA
TAFSSI
TAF AMD
KSSI 061825Z 0618/0718 04014G22KT P6SM SCT025 OVC080
      TEMPO 0618/0620 BKN025
     FM062000 36015G22KT P6SM VCSH OVC025
     FM070100 35015KT 5SM -RA OVC015
     FM070600 35013KT 5SM -RA OVC009
     FM071500 33015G25KT P6SM VCSH SCT015 OVC040=

Latest METAR

086
SAUS70 KWBC 062300 RRB
MTRSSI
METAR KSSI 062253Z AUTO 01013G21KT 10SM OVC017 09/04 A3017 RMK AO2
SLP216 T00940039


USA.gov is the U.S. government's official web portal to all federal, state and local government web resources and services.